Weather observations for the past three days for
Oakley Municipal Airport
Metric (Imperial)
Date Time (cdt) Wind (kph) Vis. (km) Weather Sky Cond. Temperature (ºC) Relative Humidity Wind Chill (°C) Heat Index (°C) Pressure Precipitation (cm)
Air Dwpt 6 hour altimeter (cm) sea level (mb) 1 hr 3 hr 6 hr
Max. Min.
09 14:35 NW 13 G 26 16.09 Fair CLR 28.2 -0.1 16% 27 75.67 0.0
09 14:15 SW 11 16.09 Fair CLR 27.8 0.7 17% 27 75.69 0.0
09 13:55 SW 19 16.09 Fair CLR 26.8 3 21% 26 75.69 0.0
09 13:35 SW 22 G 37 16.09 Fair CLR 27.3 2.5 20% 26 75.69 0.0
09 13:15 W 26 G 39 16.09 Fair CLR 27.1 2.9 21% 26 75.72 0.0
09 12:55 SW 31 G 44 16.09 Fair CLR 26.3 3.2 26.3 11 22% 26 75.72 0.0
09 12:35 SW 31 G 46 16.09 Fair CLR 26 2.8 22% 26 75.74 0.0
09 12:15 SW 35 G 48 16.09 Fair and Breezy CLR 25.1 2.8 23% 25 75.77 0.0
09 11:55 SW 31 G 44 16.09 Fair CLR 25.3 2.4 23% 25 75.79 0.0
09 11:35 SW 33 16.09 Fair and Breezy CLR 24.3 2 23% 25 75.82 0.0
09 11:15 SW 33 G 43 16.09 Fair and Breezy CLR 24.1 3.1 25% 25 75.82 0.0
09 10:55 SW 35 G 46 16.09 Fair and Breezy CLR 22.9 3 27% 75.84 0.0
09 10:35 SW 31 G 41 16.09 Fair CLR 21.5 3 30% 75.87 0.0
09 10:15 SW 30 G 41 16.09 Fair CLR 20.7 3.1 31% 75.87 0.0
09 09:55 SW 28 G 46 16.09 Fair CLR 20 2.9 32% 75.9 0.0
09 09:35 SW 31 G 44 16.09 Fair CLR 19.3 2.7 33% 75.92 0.0
09 09:15 W 22 16.09 Fair CLR 18.7 3.3 36% 75.92 0.0
09 08:55 W 22 G 30 16.09 Fair CLR 16.7 4.6 45% 75.9 0.0
09 08:35 W 19 16.09 Fair CLR 14.1 4.4 52% 75.9 0.0
09 08:15 W 17 16.09 Partly Cloudy SCT095 SCT120 13.5 4.8 56% 75.9 0.0
09 07:55 W 19 16.09 Partly Cloudy SCT095 SCT120 13.2 4.3 55% 75.9 0.0
09 07:35 W 19 16.09 Mostly Cloudy BKN120 12 4.5 60% 75.87 0.0
09 07:15 SW 15 16.09 Mostly Cloudy BKN120 11.2 4.7 65% 75.84 0.0
09 06:55 SW 11 16.09 Partly Cloudy SCT120 10.8 4.6 10.9 7.5 66% 75.87 0.0
09 06:35 W 13 16.09 Fair CLR 10.5 4.5 67% 75.84 0.0
09 06:15 W 11 16.09 Fair CLR 9.7 4.4 70% 8 75.84 0.0
09 05:55 W 11 16.09 Fair CLR 9.1 4.2 72% 8 75.84 0.0
09 05:35 W 11 16.09 Fair CLR 8.7 4 73% 7 75.84 0.0
09 05:15 W 13 16.09 Fair CLR 8.5 3.7 72% 7 75.87 0.0
09 04:55 W 11 16.09 Fair CLR 7.5 3.1 74% 6 75.87 0.0
09 04:35 W 11 16.09 Fair CLR 8 2.7 70% 6 75.9 0.0
09 04:15 W 7 16.09 Fair CLR 8.7 2.5 65% 8 75.87 0.0
09 03:55 W 9 16.09 Fair CLR 9.1 2.5 64% 8 75.87 0.0
09 03:35 W 11 16.09 Fair CLR 9.2 2.4 63% 8 75.87 0.0
09 03:15 W 13 16.09 Fair CLR 8.9 2.2 63% 7 75.87 0.0
09 02:55 SW 9 16.09 Fair CLR 8.2 2.4 67% 7 75.87 0.0
09 02:35 W 9 16.09 Fair CLR 8.7 2.5 65% 7 75.9 0.0
09 02:15 W 7 16.09 Fair CLR 8.5 2.5 66% 8 75.9 0.0
09 01:55 W 9 16.09 Fair CLR 9.3 2.3 62% 8 75.9 0.0
09 01:35 W 13 16.09 Fair CLR 8.3 3 70% 6 75.92 0.0
09 01:15 W 11 16.09 Fair CLR 9 2.6 65% 8 75.92 0.0
09 00:55 W 13 16.09 Fair CLR 9.8 2.2 22.2 9.3 59% 8 75.95 0.0
09 00:35 W 13 16.09 Fair CLR 9.6 2.5 62% 8 75.95 0.0
09 00:15 W 9 16.09 Fair CLR 10.1 2.5 60% 75.95 0.0
08 23:55 W 11 16.09 Fair CLR 10.8 2.3 56% 75.97 0.0
08 23:35 W 11 16.09 Fair CLR 11.4 2.1 53% 75.95 0.0
08 23:15 W 9 16.09 Fair CLR 12 2.1 51% 75.97 0.0
08 22:55 W 9 16.09 Fair CLR 11.8 2.8 54% 75.95 0.0
08 22:35 W 11 16.09 Fair CLR 11.2 3.4 59% 75.95 0.0
08 22:15 W 6 16.09 Fair CLR 12.7 3 52% 75.95 0.0
08 21:55 NW 7 16.09 Fair CLR 15.4 1.6 39% 75.92 0.0
08 21:35 Calm 16.09 Fair CLR 15.6 1.7 39% 75.9 0.0
08 21:15 N 7 16.09 Fair CLR 18 0.5 31% 75.87 0.0
08 20:55 N 7 16.09 Fair CLR 18 1.3 33% 75.87 0.0
08 20:35 Calm 16.09 Fair CLR 18.9 -0.1 28% 75.87 0.0
08 20:15 NW 7 16.09 Fair CLR 17.8 2.2 35% 75.87 0.0
08 19:55 N 9 16.09 Fair CLR 18.7 2.5 34% 75.84 0.0
08 19:35 N 13 16.09 Fair CLR 21.7 -0.6 23% 75.84 0.0
08 19:15 N 15 16.09 Fair CLR 22.2 -0.4 22% 75.87 0.0
08 18:55 N 9 16.09 Fair CLR 22.3 0.1 23.7 20.7 23% 75.87 0.0
08 18:35 N 15 16.09 Fair CLR 22.7 -1.1 21% 75.87 0.0
08 18:15 N 15 G 31 16.09 Partly Cloudy SCT095 22.8 -0.6 21% 75.87 0.0
08 17:55 N 13 16.09 Partly Cloudy SCT095 23.1 -1.5 19% 75.87 0.0
08 17:35 N 26 G 33 16.09 Partly Cloudy SCT095 23.5 -0.4 21% 75.87 0.0
08 17:15 N 17 16.09 Fair CLR 23.4 -1.1 20% 75.87 0.0
08 16:55 NW 13 16.09 Fair CLR 22.7 -0.2 22% 75.9 0.0
08 16:35 N 17 16.09 Partly Cloudy SCT095 22.4 0.7 24% 75.9 0.0
08 16:15 N 17 16.09 Partly Cloudy SCT095 22.9 1.3 24% 75.92 0.0
08 15:55 N 22 16.09 Mostly Cloudy BKN095 21.4 1.1 26% 75.95 0.0
08 15:35 N 26 G 31 16.09 Partly Cloudy SCT095 22.7 0.4 23% 75.95 0.0
08 15:15 N 13 G 33 16.09 Fair CLR 22.3 -0.7 22% 75.95 0.0
08 14:55 NW 15 G 30 16.09 Fair CLR 22.2 -0.8 22% 75.97 0.0
08 14:35 N 19 G 31 16.09 Fair CLR 22 -0.2 23% 75.97 0.0
08 14:15 N 20 G 31 16.09 Fair CLR 21.9 -0.3 23% 75.97 0.0
08 13:55 NE 20 G 30 16.09 Fair CLR 21.2 -0.6 23% 75.97 0.0
08 13:35 NE 19 G 28 16.09 Fair CLR 21 -0.3 24% 75.97 0.0
08 13:15 NE 19 G 28 16.09 Fair CLR 21 0.6 26% 75.97 0.0
08 12:55 NE 15 G 30 16.09 Fair CLR 20.5 0.5 20.5 10.2 26% 76 0.0
08 12:35 N 20 G 37 16.09 Fair CLR 18.8 0 28% 76 0.0
08 12:15 N 20 G 35 16.09 Fair CLR 19.1 0.2 28% 76 0.0
08 11:55 N 26 G 35 16.09 Fair CLR 18 1.8 34% 76 0.0
08 11:35 N 30 G 43 16.09 Partly Cloudy SCT110 19.3 2 32% 76.02 0.0
08 11:15 N 30 16.09 Partly Cloudy SCT110 17.5 4.7 43% 76.02 0.0
08 10:55 N 28 16.09 Mostly Cloudy SCT070 BKN080 BKN110 15.7 5.3 50% 76 0.0
08 10:35 N 24 16.09 Mostly Cloudy SCT090 BKN120 14.3 4.7 53% 76 0.0
08 10:15 N 26 G 31 16.09 Mostly Cloudy SCT100 BKN110 14.4 4.6 52% 76 0.0
08 09:55 N 28 G 33 16.09 Mostly Cloudy BKN100 BKN120 14.5 4.3 51% 75.95 0.0
08 09:35 N 30 G 39 16.09 Mostly Cloudy SCT100 BKN120 14.5 4.4 51% 75.97 0.0
08 09:15 N 28 16.09 Partly Cloudy SCT100 SCT120 15 6.1 56% 75.97 0.0
08 08:55 N 30 G 39 16.09 Partly Cloudy SCT095 14.9 7 59% 75.97 0.0
08 08:35 N 31 G 39 16.09 Fair CLR 15 7.2 60% 75.92 0.0
08 08:15 N 20 16.09 Fair CLR 13.8 7.1 64% 75.92 0.0
08 07:55 N 19 16.09 Fair CLR 13.4 7 65% 75.87 0.0
08 07:35 N 17 16.09 Fair CLR 11.7 7 73% 75.84 0.0
08 07:15 N 17 16.09 Fair CLR 10.8 6.6 76% 75.84 0.0
08 06:55 N 15 16.09 Fair CLR 10.3 6.5 15.5 10.3 78% 75.82 0.0
08 06:35 N 17 16.09 Fair CLR 11.4 6.4 72% 75.82 0.0
08 06:15 N 19 16.09 Fair CLR 12.2 6.5 68% 75.82 0.0
08 05:55 N 26 G 35 16.09 Partly Cloudy SCT090 13.5 6.2 62% 75.82 0.0
08 05:35 N 26 G 33 16.09 Mostly Cloudy BKN090 14.6 5.8 56% 75.82 0.0
08 05:15 N 17 16.09 Overcast OVC100 14.6 6.1 57% 75.79 0.0
08 04:55 NW 17 16.09 Overcast OVC110 14.8 6 56% 75.82 0.0
08 04:35 N 26 16.09 Overcast OVC110 15 5.6 54% 75.82 0.0
08 04:15 N 28 G 37 16.09 Overcast OVC110 15.4 5.5 52% 75.82 0.0
08 03:55 N 28 G 39 16.09 Overcast OVC110 15 5.6 54% 75.82 0.0
08 03:35 N 19 16.09 Overcast OVC110 14 5.6 57% 75.82 0.0
08 03:15 N 20 16.09 Mostly Cloudy BKN110 13.9 5.3 56% 75.84 0.0
08 02:55 N 15 16.09 Mostly Cloudy BKN110 13.7 4.9 56% 75.84 0.0
08 02:35 NW 13 16.09 Mostly Cloudy BKN120 12.8 5.6 62% 75.87 0.0
08 02:15 NW 13 16.09 Overcast OVC120 12 6.3 68% 75.87 0.0
08 01:55 NW 9 16.09 Overcast OVC120 12.1 6.2 67% 75.87 0.0
08 01:35 W 6 16.09 Overcast OVC120 13.1 5.4 60% 75.87 0.0
08 01:15 NW 7 16.09 Mostly Cloudy BKN110 13.3 5.7 60% 75.87 0.0
08 00:55 N 15 16.09 Mostly Cloudy BKN110 13.1 6.1 23.2 12.6 63% 75.84 0.0
08 00:35 N 13 16.09 Mostly Cloudy BKN110 13 6.7 66% 75.84 0.0
08 00:15 N 6 16.09 Fair CLR 13.3 6.6 64% 75.84 0.0
07 23:55 Calm 16.09 Partly Cloudy SCT120 13.1 6 62% 75.87 0.0
07 23:35 Calm 16.09 Mostly Cloudy BKN120 14.8 4.1 49% 75.87 0.0
07 23:15 Calm 16.09 Mostly Cloudy BKN120 13.6 5 56% 75.87 0.0
07 22:55 Calm 16.09 Mostly Cloudy BKN120 14.1 3.9 51% 75.87 0.0
07 22:35 Calm 16.09 Partly Cloudy SCT120 16.6 2.9 40% 75.84 0.0
07 22:15 E 7 16.09 Partly Cloudy SCT120 14.7 4.7 51% 75.84 0.0
07 21:55 E 7 16.09 Partly Cloudy SCT120 14.3 6.1 58% 75.82 0.0
07 21:35 E 6 16.09 Partly Cloudy SCT120 15.8 4.6 48% 75.82 0.0
07 21:15 N 9 16.09 Fair CLR 14.5 5.1 54% 75.82 0.0
07 20:55 N 11 16.09 Fair CLR 14.5 5.4 55% 75.82 0.0
07 20:35 N 11 16.09 Fair CLR 16.9 4.1 43% 75.79 0.0
07 20:15 N 13 16.09 Fair CLR 17.3 5.9 47% 75.77 0.0
07 19:55 N 11 16.09 Fair CLR 20.2 4.1 35% 75.77 0.0
07 19:35 N 11 16.09 Fair CLR 21.2 3.1 30% 75.77 0.0
07 19:15 N 13 16.09 Fair CLR 22.8 0.8 23% 75.74 0.0
07 18:55 N 15 16.09 Fair CLR 23.5 0.8 24.9 21.3 22% 75.74 0.0
07 18:35 N 9 16.09 Partly Cloudy SCT110 24.1 0.4 21% 25 75.74 0.0
07 18:15 N 11 16.09 Partly Cloudy SCT110 24.2 0.6 21% 25 75.74 0.0
07 17:55 N 11 16.09 Mostly Cloudy BKN110 23 1.3 24% 75.77 0.0
07 17:35 NW 19 16.09 Mostly Cloudy BKN120 22.8 -0.3 22% 75.79 0.0
07 17:15 NW 20 16.09 Mostly Cloudy BKN120 24.8 -0.2 19% 25 75.79 0.0
07 16:55 W 13 16.09 Fair CLR 24.1 -2.2 17% 24 75.79 0.0
07 16:35 W 13 G 31 16.09 Fair CLR 23.4 -1.3 19% 75.82 0.0
07 16:15 NW 19 G 31 16.09 Fair CLR 23.4 -1.4 19% 75.84 0.0
07 15:15 NW 17 G 30 16.09 Fair CLR 23.4 0.1 21% 75.87 0.0
07 14:55 W 15 G 28 16.09 Fair CLR 22.8 0.5 23% 75.9 0.0
07 14:35 NW 19 G 30 16.09 Fair CLR 22.5 0.1 23% 75.92 0.0
07 14:15 W 20 G 28 16.09 Fair CLR 22.2 -0.3 22% 75.95 0.0
07 13:55 NW 20 G 31 16.09 Fair CLR 21.9 0.3 24% 75.95 0.0
07 13:35 NW 24 G 46 16.09 Fair CLR 21.6 1.1 26% 75.97 0.0
07 13:15 NW 22 G 37 16.09 Fair CLR 21.7 1.6 27% 75.97 0.0
07 12:55 NW 26 16.09 Fair CLR 21.3 1 21.6 2.5 26% 76 0.0
07 12:35 NW 26 16.09 Fair CLR 21.5 0.2 24% 76 0.0
07 12:15 NW 22 G 33 16.09 Fair CLR 21.5 0.3 24% 76.02 0.0
07 11:55 W 22 16.09 Fair CLR 20.6 1.5 28% 76.02 0.0
07 11:35 W 24 G 37 16.09 Fair CLR 19.2 1.1 30% 76.05 0.0
07 11:15 W 28 G 39 16.09 Fair CLR 18.6 2.5 34% 76.05 0.0
07 10:55 W 28 16.09 Fair CLR 17.4 3 38% 76.07 0.0
07 10:35 W 28 16.09 Fair CLR 16.3 3.1 41% 76.07 0.0
07 10:15 W 28 16.09 Fair CLR 15.4 3.4 45% 76.1 0.0
07 09:55 W 31 G 37 16.09 Fair CLR 13.5 2.5 48% 76.1 0.0
07 09:35 W 24 G 31 16.09 Fair CLR 11.5 3.4 58% 76.1 0.0
07 09:15 W 26 16.09 Fair CLR 9.8 3.1 63% 7 76.1 0.0
07 08:55 W 26 G 33 16.09 Fair CLR 8.5 3 69% 5 76.1 0.0
07 08:35 W 24 16.09 Fair CLR 7.2 2.3 71% 4 76.1 0.0
07 08:15 W 26 16.09 Fair CLR 5.8 2 77% 2 76.1 0.0
07 07:55 W 22 16.09 Fair CLR 4.7 1.3 79% 1 76.1 0.0
07 07:35 W 22 16.09 Fair CLR 4.1 0.9 80% 0 76.1 0.0
07 07:15 W 22 16.09 Fair CLR 3.1 0.5 83% -1 76.1 0.0
07 06:55 W 19 16.09 Fair CLR 2.5 0.1 3 1.2 84% -1 76.12 0.0
07 06:35 W 20 16.09 Fair CLR 2.2 0 86% -2 76.15 0.0
07 06:15 W 17 16.09 Fair CLR 1.7 0 89% -2 76.17 0.0
07 05:55 W 17 16.09 Fair CLR 1.9 0 87% -2 76.17 0.0
07 05:35 W 17 16.09 Fair CLR 2 0 87% -2 76.17 0.0
07 05:15 W 19 16.09 Fair CLR 2.4 0.2 86% -2 76.2 0.0
07 04:55 W 20 16.09 Fair CLR 2.3 0.3 87% -2 76.23 0.0
07 04:35 W 20 16.09 Fair CLR 1.8 0.3 90% -3 76.25 0.0
07 04:15 W 15 16.09 Fair CLR 1.4 0 91% -2 76.25 0.0
07 03:55 W 13 16.09 Fair CLR 1.3 0 91% -2 76.28 0.0
07 03:35 W 13 16.09 Fair CLR 1.5 0.1 91% -2 76.28 0.0
07 03:15 W 15 16.09 Fair CLR 1.8 0.3 90% -2 76.3 0.0
07 02:55 W 17 16.09 Fair CLR 2.1 0.6 90% -2 76.33 0.0
07 02:35 W 17 16.09 Fair CLR 2.1 0.6 90% -2 76.38 0.0
07 02:15 W 17 16.09 Fair CLR 2.2 0.7 90% -2 76.38 0.0
07 01:55 W 15 16.09 Fair CLR 2.3 0.7 89% -1 76.38 0.0
07 01:35 W 17 16.09 Fair CLR 2.7 1 89% -1 76.43 0.0
07 01:15 W 17 16.09 Fair CLR 2.8 1.1 89% -1 76.43 0.0
07 00:55 W 19 16.09 Fair CLR 2.8 1.2 7.8 2.5 89% -1 76.43 0.0
07 00:35 SW 15 16.09 Fair CLR 2.5 1 90% -1 76.45 0.0
07 00:15 W 13 16.09 Fair CLR 3.1 1.5 89% 0 76.45 0.0
06 23:55 SW 17 16.09 Fair CLR 3.5 1.6 88% 0 76.45 0.0
06 23:35 W 17 16.09 Fair CLR 3.5 2 90% 0 76.45 0.0
06 23:15 SW 13 16.09 Fair CLR 3.1 1.5 89% 0 76.48 0.0
06 22:55 SW 13 16.09 Fair CLR 3 1.5 90% 0 76.48 0.0
06 22:35 W 11 16.09 Fair CLR 3.2 1.6 89% 1 76.48 0.0
06 22:15 W 11 16.09 Fair CLR 3.4 1.7 89% 1 76.48 0.0
06 21:55 SW 11 16.09 Fair CLR 3.8 2 88% 1 76.48 0.0
06 21:35 SW 11 16.09 Fair CLR 4.1 2.1 87% 2 76.48 0.0
06 21:15 W 11 16.09 Fair CLR 4.6 2.5 86% 2 76.45 0.0
06 20:55 W 11 16.09 Fair CLR 5.6 2.7 82% 3 76.45 0.0
06 20:35 W 15 16.09 Fair CLR 6.3 3.2 81% 4 76.48 0.0
06 20:15 W 15 16.09 Fair CLR 7 3.5 79% 5 76.45 0.0
06 19:55 W 15 16.09 Partly Cloudy SCT100 SCT120 7.6 3.6 76% 5 76.43 0.0
06 19:35 W 17 16.09 Mostly Cloudy BKN100 7.2 4.1 81% 5 76.45 0.0
06 19:15 W 17 16.09 Partly Cloudy SCT110 7.1 3.1 76% 4 76.45 0.0
06 18:55 W 22 16.09 Fair CLR 7.4 4 9 5.8 79% 4 76.45 0.0 0.05 0.15
06 18:35 W 19 16.09 Mostly Cloudy SCT022 SCT037 BKN080 7.5 3.7 77% 5 76.45 0.0 0.05
06 18:15 SW 22 11.27 Overcast SCT018 BKN035 OVC045 7.3 4.7 84% 4 76.45 0.0 0.05
06 17:55 SW 20 16.09 Mostly Cloudy SCT018 SCT025 BKN050 7.5 4.2 80% 4 76.45 0.0 0.05
06 17:35 NW 7 16.09 Mostly Cloudy SCT026 SCT045 BKN050 7.6 4.1 79% 7 76.45 0.0 0.05
06 17:15 NW 6 6.44 Overcast with Haze SCT017 OVC026 6.4 3.4 81% 76.45 0.0 0.05
06 16:55 W 19 3.22 Fog/Mist BKN018 BKN022 OVC028 6.3 3.9 85% 3 76.48 0.0 0.03
06 16:35 NW 9 8.05 Overcast with Haze SCT028 BKN036 OVC055 7.1 3.6 79% 6 76.48 0.0
06 16:15 N 11 11.27 Overcast SCT019 BKN036 OVC055 7.6 4.5 81% 6 76.5 0.0
06 15:55 N 13 16.09 Overcast BKN013 OVC019 7 4 81% 5 76.5 0.0
06 15:35 NE 6 16.09 Overcast SCT013 BKN022 OVC030 7.4 3.6 77% 76.5 0.0
06 15:15 W 9 16.09 Overcast SCT024 BKN032 OVC037 8.1 2.8 70% 7 76.5 0.0
06 14:55 W 17 16.09 Overcast SCT022 BKN031 OVC038 8.8 2.6 65% 7 76.5 0.0
Date Time (cdt) Wind (kph) Vis. (km) Weather Sky Cond. Air Dwpt Max. Min. Relative Humidity Wind Chill (°C) Heat Index (°C) altimeter (cm) sea level (mb) 1 hr 3 hr 6 hr
6 hour
Temperature (ºC) Pressure Precipitation (cm)